Time;durP1;ratioP1;P1;durP2;ratioP2;P2;SDS_P1;SDS_P2;PMS_P1;PMS_P2;Temp;Humidity;BMP_temperature;BMP_pressure;BME280_temperature;BME280_humidity;BME280_pressure;Samples;Min_cycle;Max_cycle;Signal;HPM_P1;HPM_P2
2023/11/08 00:01:53;;;;;;;8.70;6.30;;;9.10;99.90;;;;;;5013468;28;20486;-72
2023/11/08 00:04:20;;;;;;;6.07;5.47;;;9.10;99.90;;;;;;5013560;28;20451;-72
2023/11/08 00:06:47;;;;;;;5.90;5.30;;;9.10;99.90;;;;;;5013359;28;20467;-72
2023/11/08 00:09:14;;;;;;;8.77;6.00;;;9.10;99.90;;;;;;5013282;28;20451;-72
2023/11/08 00:11:41;;;;;;;8.03;5.23;;;9.10;99.90;;;;;;5013621;28;20452;-72
2023/11/08 00:14:10;;;;;;;5.10;4.40;;;9.20;99.90;;;;;;5012962;28;20984;-72
2023/11/08 00:16:38;;;;;;;5.97;4.70;;;9.20;99.90;;;;;;5012931;28;20463;-72
2023/11/08 00:19:07;;;;;;;5.70;4.27;;;9.20;99.90;;;;;;5012808;28;20458;-73
2023/11/08 00:21:34;;;;;;;11.30;5.70;;;9.20;99.90;;;;;;5012738;28;20455;-72
2023/11/08 00:24:02;;;;;;;7.00;5.60;;;9.20;99.90;;;;;;5013099;28;20450;-72
2023/11/08 00:26:29;;;;;;;6.50;5.00;;;9.20;99.90;;;;;;5013200;28;20454;-73
2023/11/08 00:28:55;;;;;;;8.63;5.43;;;9.20;99.90;;;;;;5012918;28;20813;-72
2023/11/08 00:31:24;;;;;;;7.70;5.20;;;9.20;99.90;;;;;;5013020;28;20824;-72
2023/11/08 00:33:52;;;;;;;11.33;4.97;;;9.20;99.90;;;;;;5011435;28;20472;-72
2023/11/08 00:36:20;;;;;;;6.30;4.63;;;9.20;99.90;;;;;;5013166;28;20455;-72
2023/11/08 00:38:47;;;;;;;8.20;5.00;;;9.20;99.90;;;;;;5012489;28;20643;-72
2023/11/08 00:41:14;;;;;;;5.87;4.60;;;9.20;99.90;;;;;;5012982;28;20459;-72
2023/11/08 00:43:41;;;;;;;7.03;5.10;;;9.20;99.90;;;;;;5012798;28;20448;-72
2023/11/08 00:46:08;;;;;;;7.80;4.83;;;9.20;99.90;;;;;;5012658;28;20457;-72
2023/11/08 00:48:36;;;;;;;5.00;4.47;;;9.20;99.90;;;;;;5012949;28;20458;-72
2023/11/08 00:51:04;;;;;;;8.13;4.93;;;9.20;99.90;;;;;;5013013;28;20998;-73
2023/11/08 00:53:31;;;;;;;5.77;4.17;;;9.20;99.90;;;;;;5012646;28;20506;-72
2023/11/08 00:55:58;;;;;;;7.30;4.40;;;9.20;99.90;;;;;;5012684;28;20463;-73
2023/11/08 00:58:24;;;;;;;6.50;5.03;;;9.20;99.90;;;;;;5012221;28;20455;-73
2023/11/08 01:00:51;;;;;;;10.97;6.47;;;9.20;99.90;;;;;;5012454;28;20451;-72
2023/11/08 01:03:18;;;;;;;8.07;5.53;;;9.20;99.90;;;;;;5012329;28;20207;-72
2023/11/08 01:05:45;;;;;;;6.63;4.77;;;9.20;99.90;;;;;;5012520;28;20468;-72
2023/11/08 01:08:13;;;;;;;6.43;5.20;;;9.20;99.90;;;;;;5012320;28;20940;-73
2023/11/08 01:10:41;;;;;;;6.03;5.53;;;9.10;99.90;;;;;;5012534;28;20449;-73
2023/11/08 01:13:08;;;;;;;8.20;6.63;;;9.10;99.90;;;;;;5012390;28;20455;-73
2023/11/08 01:15:36;;;;;;;9.30;6.70;;;9.10;99.90;;;;;;5012377;28;20486;-72
2023/11/08 01:18:03;;;;;;;7.63;7.03;;;9.10;99.90;;;;;;5012403;28;20455;-72
2023/11/08 01:20:30;;;;;;;7.40;6.60;;;9.20;99.90;;;;;;5012390;28;20772;-72
2023/11/08 01:22:58;;;;;;;7.53;6.83;;;9.20;99.90;;;;;;5012235;28;20455;-72
2023/11/08 01:25:26;;;;;;;8.17;7.40;;;9.20;99.90;;;;;;5012385;28;20451;-72
2023/11/08 01:27:53;;;;;;;8.17;7.47;;;9.20;99.90;;;;;;5011970;28;20543;-72
2023/11/08 01:30:20;;;;;;;9.03;8.33;;;9.20;99.90;;;;;;5012497;28;20451;-72
2023/11/08 01:32:47;;;;;;;9.43;8.53;;;9.20;99.90;;;;;;5012318;28;20465;-72
2023/11/08 01:35:14;;;;;;;9.20;8.50;;;9.20;99.90;;;;;;5012250;28;20478;-72
2023/11/08 01:37:41;;;;;;;9.00;8.17;;;9.20;99.90;;;;;;5012451;28;20450;-72
2023/11/08 01:40:09;;;;;;;10.10;8.30;;;9.20;99.90;;;;;;5012177;28;20452;-72
2023/11/08 01:42:38;;;;;;;9.47;8.47;;;9.20;99.90;;;;;;5012050;28;20458;-73
2023/11/08 01:45:05;;;;;;;11.50;9.00;;;9.20;99.90;;;;;;5012937;28;20452;-72
2023/11/08 01:47:34;;;;;;;8.13;7.33;;;9.20;99.90;;;;;;5016020;28;20455;-72
2023/11/08 01:50:02;;;;;;;8.90;8.00;;;9.20;99.90;;;;;;5015709;28;20811;-72
2023/11/08 01:52:29;;;;;;;9.13;7.90;;;9.20;99.90;;;;;;5015212;28;20452;-72
2023/11/08 01:54:57;;;;;;;9.93;9.13;;;9.20;99.90;;;;;;5015713;28;20900;-72
2023/11/08 01:57:24;;;;;;;10.87;7.30;;;9.20;99.90;;;;;;5016170;28;20451;-72
2023/11/08 01:59:53;;;;;;;8.27;7.47;;;9.20;99.90;;;;;;4996284;28;20823;-73
2023/11/08 02:02:20;;;;;;;11.50;7.50;;;9.20;99.90;;;;;;4995891;28;20544;-72
2023/11/08 02:04:47;;;;;;;9.17;8.40;;;9.20;99.90;;;;;;4996120;28;20481;-72
2023/11/08 02:07:14;;;;;;;8.03;7.23;;;9.20;99.90;;;;;;4996469;28;20456;-72
2023/11/08 02:09:41;;;;;;;8.43;7.37;;;9.20;99.90;;;;;;5015251;28;20546;-72
2023/11/08 02:12:09;;;;;;;8.57;7.00;;;9.20;99.90;;;;;;5015353;28;20445;-72
2023/11/08 02:14:36;;;;;;;9.50;6.83;;;9.20;99.90;;;;;;5015457;28;20564;-72
2023/11/08 02:17:05;;;;;;;9.97;5.60;;;9.20;99.90;;;;;;5015392;28;20804;-72
2023/11/08 02:19:32;;;;;;;10.47;5.53;;;9.20;99.90;;;;;;5015382;28;20449;-72
2023/11/08 02:21:58;;;;;;;6.83;5.20;;;9.20;99.90;;;;;;5015133;28;20453;-72
2023/11/08 02:24:27;;;;;;;7.57;5.77;;;9.10;99.90;;;;;;5015062;28;20448;-72
2023/11/08 02:26:54;;;;;;;7.67;6.90;;;9.20;99.90;;;;;;5014743;28;20542;-72
2023/11/08 02:29:21;;;;;;;6.87;5.50;;;9.10;99.90;;;;;;5015307;28;20479;-72
2023/11/08 02:31:50;;;;;;;6.20;5.57;;;9.10;99.90;;;;;;5015370;28;20450;-72
2023/11/08 02:34:17;;;;;;;6.10;5.00;;;9.10;99.90;;;;;;5014841;28;20456;-72
2023/11/08 02:36:44;;;;;;;5.80;5.17;;;9.10;99.90;;;;;;5014696;28;20449;-73
2023/11/08 02:39:11;;;;;;;8.00;5.03;;;9.10;99.90;;;;;;5015202;28;20785;-72
2023/11/08 02:41:40;;;;;;;6.17;4.43;;;9.10;99.90;;;;;;5015024;28;20504;-72
2023/11/08 02:44:08;;;;;;;5.73;4.23;;;9.10;99.90;;;;;;5015127;28;20850;-73
2023/11/08 02:46:35;;;;;;;5.67;4.20;;;9.20;99.90;;;;;;5014968;28;20465;-73
2023/11/08 02:49:02;;;;;;;6.80;5.60;;;9.20;99.90;;;;;;5014680;28;20456;-72
2023/11/08 02:51:29;;;;;;;7.00;3.80;;;9.20;99.90;;;;;;5014619;28;20955;-72
2023/11/08 02:53:56;;;;;;;5.50;4.83;;;9.20;99.90;;;;;;5014925;28;20457;-73
2023/11/08 02:56:24;;;;;;;5.30;4.80;;;9.20;99.90;;;;;;5014197;28;20482;-73
2023/11/08 02:58:53;;;;;;;6.27;3.20;;;9.20;99.90;;;;;;5014347;28;20453;-72
2023/11/08 03:01:21;;;;;;;6.97;4.13;;;9.30;99.90;;;;;;5014487;28;20456;-72
2023/11/08 03:03:48;;;;;;;5.10;3.20;;;9.20;99.90;;;;;;5014330;28;20459;-72
2023/11/08 03:06:15;;;;;;;4.67;3.30;;;9.20;99.90;;;;;;5014517;28;20836;-73
2023/11/08 03:08:42;;;;;;;4.77;3.33;;;9.20;99.90;;;;;;5014329;28;20927;-72
2023/11/08 03:11:08;;;;;;;6.00;4.13;;;9.20;99.90;;;;;;5014650;28;20859;-72
2023/11/08 03:13:35;;;;;;;6.87;2.90;;;9.10;99.90;;;;;;5014536;28;20451;-72
2023/11/08 03:16:04;;;;;;;8.40;3.80;;;9.00;99.90;;;;;;5014268;28;20572;-73
2023/11/08 03:18:31;;;;;;;7.07;4.30;;;9.00;99.90;;;;;;5014019;28;20458;-72
2023/11/08 03:20:58;;;;;;;7.10;6.50;;;8.80;99.90;;;;;;5014327;28;20825;-72
2023/11/08 03:23:26;;;;;;;10.10;9.20;;;8.70;99.90;;;;;;5014061;28;20464;-72
2023/11/08 03:25:53;;;;;;;11.30;10.30;;;8.70;99.90;;;;;;5014092;28;20455;-72
2023/11/08 03:28:19;;;;;;;11.00;10.10;;;8.70;99.90;;;;;;5013979;28;20969;-72
2023/11/08 03:30:46;;;;;;;10.83;9.60;;;8.70;99.90;;;;;;5013924;28;20477;-72
2023/11/08 03:33:14;;;;;;;11.70;10.80;;;8.70;99.90;;;;;;5014097;28;20453;-72
2023/11/08 03:35:41;;;;;;;13.97;12.70;;;8.70;99.90;;;;;;5013833;28;20482;-72
2023/11/08 03:38:08;;;;;;;14.03;13.10;;;8.60;99.90;;;;;;5013915;28;20454;-72
2023/11/08 03:40:35;;;;;;;14.60;13.50;;;8.60;99.90;;;;;;5013901;28;20970;-72
2023/11/08 03:43:02;;;;;;;15.40;14.50;;;8.60;99.90;;;;;;5013978;28;20465;-72
2023/11/08 03:45:29;;;;;;;16.53;15.50;;;8.50;99.90;;;;;;5013662;28;20971;-72
2023/11/08 03:47:55;;;;;;;16.17;15.07;;;8.50;99.90;;;;;;5013737;28;20892;-72
2023/11/08 03:50:24;;;;;;;22.20;20.90;;;8.40;99.90;;;;;;5013709;28;20480;-72
2023/11/08 03:52:50;;;;;;;27.10;25.40;;;8.20;99.90;;;;;;5013513;28;20455;-72
2023/11/08 03:55:17;;;;;;;43.80;41.60;;;8.10;99.90;;;;;;5013622;28;20485;-72
2023/11/08 03:57:44;;;;;;;59.47;56.97;;;8.00;99.90;;;;;;5014067;28;20460;-72
2023/11/08 04:00:13;;;;;;;84.43;80.93;;;7.90;99.90;;;;;;5013404;28;20457;-72
2023/11/08 04:02:40;;;;;;;117.60;113.63;;;7.80;99.90;;;;;;5013033;28;20464;-72
2023/11/08 04:05:07;;;;;;;151.87;146.47;;;7.70;99.90;;;;;;5013387;28;20456;-72
2023/11/08 04:07:35;;;;;;;195.67;189.07;;;7.60;99.90;;;;;;5012545;28;20455;-72
2023/11/08 04:10:02;;;;;;;190.67;184.00;;;7.60;99.90;;;;;;5013112;28;20950;-72
2023/11/08 04:12:29;;;;;;;261.73;252.57;;;7.40;99.90;;;;;;5013238;28;20453;-72
2023/11/08 04:14:56;;;;;;;297.20;286.40;;;7.40;99.90;;;;;;5013109;28;20914;-72
2023/11/08 04:17:22;;;;;;;286.50;275.70;;;7.30;99.90;;;;;;5012981;28;20481;-72
2023/11/08 04:19:49;;;;;;;323.23;310.80;;;7.30;99.90;;;;;;5012758;28;20533;-72
2023/11/08 04:22:17;;;;;;;348.97;334.87;;;7.30;99.90;;;;;;5013260;28;20831;-72
2023/11/08 04:24:45;;;;;;;358.30;343.37;;;7.20;99.90;;;;;;5012961;28;20957;-72
2023/11/08 04:27:12;;;;;;;387.80;371.30;;;7.20;99.90;;;;;;5012928;28;20547;-72
2023/11/08 04:29:39;;;;;;;346.83;332.33;;;7.30;99.90;;;;;;5013261;28;20880;-72
2023/11/08 04:32:07;;;;;;;388.67;372.07;;;7.20;99.90;;;;;;5013241;28;20524;-72
2023/11/08 04:34:34;;;;;;;367.40;351.40;;;7.20;99.90;;;;;;5013154;28;20459;-72
2023/11/08 04:37:02;;;;;;;385.70;369.20;;;7.10;99.90;;;;;;5012724;28;20488;-72
2023/11/08 04:39:29;;;;;;;434.30;414.87;;;7.00;99.90;;;;;;5012424;28;20460;-72
2023/11/08 04:41:58;;;;;;;447.70;427.00;;;6.90;99.90;;;;;;5012796;28;20788;-72
2023/11/08 04:44:24;;;;;;;434.93;414.67;;;6.90;99.90;;;;;;5012747;28;20459;-72
2023/11/08 04:46:51;;;;;;;471.67;449.70;;;6.90;99.90;;;;;;5012726;28;20448;-72
2023/11/08 04:49:18;;;;;;;468.87;446.83;;;6.90;99.90;;;;;;5012430;28;20459;-72
2023/11/08 04:51:45;;;;;;;512.33;487.13;;;6.80;99.90;;;;;;5012801;28;20456;-72
2023/11/08 04:54:12;;;;;;;576.63;546.37;;;6.80;99.90;;;;;;5012410;28;20449;-72
2023/11/08 04:56:40;;;;;;;527.53;500.37;;;6.90;99.90;;;;;;5012742;28;20916;-72
2023/11/08 04:59:11;;;;;;;559.07;530.40;;;6.90;99.90;;;;;;5012582;28;20459;-72
2023/11/08 05:01:38;;;;;;;523.93;496.70;;;7.00;99.90;;;;;;5012505;28;20934;-72
2023/11/08 05:04:05;;;;;;;503.37;476.47;;;7.00;99.90;;;;;;5012443;28;20843;-72
2023/11/08 05:06:32;;;;;;;469.80;446.23;;;6.90;99.90;;;;;;5012548;28;20933;-72
2023/11/08 05:08:59;;;;;;;527.33;499.70;;;6.80;99.90;;;;;;5012245;28;20460;-72
2023/11/08 05:11:29;;;;;;;504.10;477.87;;;6.80;99.90;;;;;;5012670;28;20453;-72
2023/11/08 05:13:56;;;;;;;536.77;508.23;;;6.70;99.90;;;;;;5012648;28;20758;-72
2023/11/08 05:16:24;;;;;;;603.30;570.33;;;6.70;99.90;;;;;;5011753;28;20487;-72
2023/11/08 05:18:52;;;;;;;631.47;596.60;;;6.60;99.90;;;;;;5011320;28;20836;-72
2023/11/08 05:21:20;;;;;;;596.40;563.73;;;6.70;99.90;;;;;;5013833;28;21039;-72
2023/11/08 05:23:47;;;;;;;687.20;646.50;;;6.60;99.90;;;;;;5014982;28;20535;-72
2023/11/08 05:26:14;;;;;;;704.13;662.40;;;6.70;99.90;;;;;;5016635;28;20447;-72
2023/11/08 05:28:41;;;;;;;702.93;661.17;;;6.60;99.90;;;;;;5016343;28;20503;-72
2023/11/08 05:31:07;;;;;;;671.67;632.77;;;6.70;99.90;;;;;;5016289;28;20555;-72
2023/11/08 05:33:39;;;;;;;729.93;686.03;;;6.70;99.90;;;;;;5015830;28;20821;-72
2023/11/08 05:36:07;;;;;;;704.57;661.60;;;6.80;99.90;;;;;;5015823;28;20487;-72
2023/11/08 05:38:33;;;;;;;727.93;683.57;;;6.80;99.90;;;;;;5015048;28;20508;-72
2023/11/08 05:41:00;;;;;;;706.47;664.13;;;6.90;99.90;;;;;;5016199;28;20453;-72
2023/11/08 05:43:28;;;;;;;697.80;657.07;;;6.90;99.90;;;;;;5016126;28;20453;-72
2023/11/08 05:45:55;;;;;;;713.87;669.47;;;6.80;99.90;;;;;;5015157;28;20445;-72
2023/11/08 05:48:22;;;;;;;668.43;628.47;;;6.90;99.90;;;;;;5015229;28;20492;-72
2023/11/08 05:50:50;;;;;;;677.07;635.17;;;7.00;99.90;;;;;;5015982;28;20479;-72
2023/11/08 05:53:19;;;;;;;630.50;593.93;;;7.00;99.90;;;;;;5015796;28;20457;-72
2023/11/08 05:55:46;;;;;;;640.87;604.57;;;7.00;99.90;;;;;;5015613;28;20534;-72
2023/11/08 05:58:14;;;;;;;658.17;621.07;;;6.90;99.90;;;;;;5015363;28;20792;-72
2023/11/08 06:00:41;;;;;;;669.23;630.93;;;6.90;99.90;;;;;;5015648;28;20879;-72
2023/11/08 06:03:07;;;;;;;681.00;641.60;;;6.90;99.90;;;;;;5015093;28;20457;-72
2023/11/08 06:05:34;;;;;;;690.67;650.00;;;6.90;99.90;;;;;;5015275;28;20461;-72
2023/11/08 06:08:03;;;;;;;690.50;649.10;;;7.00;99.90;;;;;;5015264;28;20453;-72
2023/11/08 06:10:31;;;;;;;683.10;643.10;;;7.00;99.90;;;;;;5015464;28;20448;-72
2023/11/08 06:12:57;;;;;;;687.50;646.47;;;7.00;99.90;;;;;;5015241;28;20541;-72
2023/11/08 06:15:24;;;;;;;686.43;645.03;;;7.00;99.90;;;;;;5014961;28;20449;-72
2023/11/08 06:17:52;;;;;;;667.23;627.13;;;7.10;99.90;;;;;;5015318;28;20460;-72
2023/11/08 06:20:19;;;;;;;654.63;616.47;;;7.10;99.90;;;;;;5015228;28;21234;-73
2023/11/08 06:22:46;;;;;;;659.50;621.20;;;7.20;99.90;;;;;;5015208;28;20460;-73
2023/11/08 06:25:14;;;;;;;595.03;560.93;;;7.40;99.90;;;;;;5015011;28;20460;-73
2023/11/08 06:27:41;;;;;;;534.93;505.83;;;7.40;99.90;;;;;;5014993;28;20448;-73
2023/11/08 06:30:08;;;;;;;468.87;444.00;;;7.60;99.90;;;;;;5014573;28;20487;-73
2023/11/08 06:32:36;;;;;;;422.67;400.60;;;7.70;99.90;;;;;;5015136;28;20449;-72
2023/11/08 06:35:03;;;;;;;371.97;353.73;;;7.80;99.90;;;;;;5014515;28;20460;-73
2023/11/08 06:37:30;;;;;;;339.63;322.77;;;7.90;99.90;;;;;;5014775;28;20488;-73
2023/11/08 06:39:57;;;;;;;308.77;293.70;;;8.00;99.90;;;;;;5014776;28;20460;-73
2023/11/08 06:42:25;;;;;;;290.10;277.33;;;8.00;99.90;;;;;;5014470;28;20450;-73
2023/11/08 06:44:52;;;;;;;264.97;253.40;;;8.00;99.90;;;;;;5014239;28;20452;-73
2023/11/08 06:47:19;;;;;;;253.60;243.07;;;8.10;99.90;;;;;;5014315;28;20452;-73
2023/11/08 06:49:46;;;;;;;220.63;211.37;;;8.20;99.90;;;;;;5014771;28;20457;-73
2023/11/08 06:52:13;;;;;;;207.23;199.03;;;8.20;99.90;;;;;;5014909;28;20458;-73
2023/11/08 06:54:41;;;;;;;194.00;186.80;;;8.30;99.90;;;;;;5014616;28;20453;-73
2023/11/08 06:57:09;;;;;;;182.07;175.03;;;8.30;99.90;;;;;;5014398;28;20478;-73
2023/11/08 06:59:37;;;;;;;161.10;155.27;;;8.30;99.90;;;;;;5014557;28;20482;-73
2023/11/08 07:02:04;;;;;;;156.17;150.47;;;8.30;99.90;;;;;;5014543;28;20522;-73
2023/11/08 07:04:31;;;;;;;167.40;161.30;;;8.30;99.90;;;;;;5014558;28;20446;-73
2023/11/08 07:06:58;;;;;;;154.10;148.10;;;8.30;99.90;;;;;;5014275;28;20471;-73
2023/11/08 07:09:25;;;;;;;150.90;144.90;;;8.40;99.90;;;;;;5014357;28;20827;-73
2023/11/08 07:11:52;;;;;;;153.03;147.63;;;8.40;99.90;;;;;;5014407;28;20498;-73
2023/11/08 07:14:19;;;;;;;143.37;137.07;;;8.50;99.90;;;;;;5014327;28;20821;-73
2023/11/08 07:16:47;;;;;;;137.83;132.73;;;8.50;99.90;;;;;;5014183;28;20484;-73
2023/11/08 07:19:14;;;;;;;121.50;116.70;;;8.60;99.90;;;;;;5014180;28;20456;-73
2023/11/08 07:21:41;;;;;;;111.07;107.00;;;8.70;99.90;;;;;;5014315;28;20545;-73
2023/11/08 07:24:08;;;;;;;81.30;78.03;;;8.80;99.90;;;;;;5014058;28;20453;-73
2023/11/08 07:26:35;;;;;;;61.20;58.70;;;8.90;99.90;;;;;;5014083;28;20448;-73
2023/11/08 07:29:04;;;;;;;48.77;46.33;;;9.00;99.90;;;;;;5013885;28;20518;-73
2023/11/08 07:31:31;;;;;;;40.30;38.30;;;9.10;99.90;;;;;;5013991;28;20456;-73
2023/11/08 07:34:00;;;;;;;31.83;30.07;;;9.10;99.90;;;;;;5013937;28;20455;-73
2023/11/08 07:36:29;;;;;;;27.63;26.30;;;9.20;99.90;;;;;;5013591;28;20483;-73
2023/11/08 07:38:56;;;;;;;23.03;21.63;;;9.30;99.90;;;;;;5013708;28;20539;-73
2023/11/08 07:41:23;;;;;;;15.90;14.17;;;9.40;99.90;;;;;;5013648;28;20483;-73
2023/11/08 07:43:50;;;;;;;15.37;13.40;;;9.50;99.90;;;;;;5013340;28;20500;-73
2023/11/08 07:46:17;;;;;;;9.20;8.30;;;9.60;99.90;;;;;;5013557;28;20451;-73
2023/11/08 07:48:43;;;;;;;9.40;8.50;;;9.60;99.90;;;;;;5013582;28;20543;-73
2023/11/08 07:51:12;;;;;;;22.20;8.97;;;9.60;99.90;;;;;;5014134;28;20454;-73
2023/11/08 07:53:39;;;;;;;8.07;6.53;;;9.60;99.90;;;;;;5013609;28;21003;-73
2023/11/08 07:56:08;;;;;;;9.90;6.00;;;9.50;99.90;;;;;;5013664;28;20487;-73
2023/11/08 07:58:34;;;;;;;8.93;6.60;;;9.40;99.90;;;;;;5013301;28;20453;-73
2023/11/08 08:01:01;;;;;;;10.83;6.60;;;9.40;99.90;;;;;;5013472;28;20456;-73
2023/11/08 08:03:28;;;;;;;8.10;6.73;;;9.30;99.90;;;;;;5013097;28;20458;-73
2023/11/08 08:05:56;;;;;;;8.13;6.90;;;9.20;99.90;;;;;;5013342;28;20951;-73
2023/11/08 08:08:25;;;;;;;7.97;6.40;;;9.20;99.90;;;;;;5013213;28;20473;-73
2023/11/08 08:10:51;;;;;;;12.30;8.03;;;9.20;99.90;;;;;;5013237;28;20525;-73
2023/11/08 08:13:18;;;;;;;9.27;8.30;;;9.10;99.90;;;;;;5012890;28;20452;-73
2023/11/08 08:15:45;;;;;;;9.23;8.40;;;9.10;99.90;;;;;;5013329;28;20935;-73
2023/11/08 08:18:12;;;;;;;11.53;9.57;;;9.20;99.90;;;;;;5013180;28;20489;-73
2023/11/08 08:20:39;;;;;;;9.90;9.10;;;9.20;99.90;;;;;;5012960;28;20542;-73
2023/11/08 08:23:09;;;;;;;11.23;10.07;;;9.20;99.90;;;;;;5012687;28;20460;-73
2023/11/08 08:25:38;;;;;;;9.27;8.13;;;9.30;99.90;;;;;;5012326;28;20800;-73
2023/11/08 08:28:06;;;;;;;9.13;7.93;;;9.40;99.90;;;;;;5012150;28;20937;-73
2023/11/08 08:30:33;;;;;;;9.77;6.07;;;9.60;99.90;;;;;;5012425;28;20456;-73
2023/11/08 08:33:01;;;;;;;9.27;5.70;;;9.70;99.90;;;;;;5011421;28;20451;-73
2023/11/08 08:35:28;;;;;;;7.80;4.97;;;9.80;99.90;;;;;;5012440;28;20464;-73
2023/11/08 08:37:55;;;;;;;8.23;4.13;;;9.90;99.90;;;;;;5012311;28;20820;-73
2023/11/08 08:40:22;;;;;;;13.17;5.83;;;10.00;99.90;;;;;;5011429;28;20453;-73
2023/11/08 08:42:50;;;;;;;8.30;4.00;;;10.10;99.90;;;;;;5011501;28;20962;-73
2023/11/08 08:45:17;;;;;;;7.10;3.00;;;10.30;99.90;;;;;;5012187;28;20455;-73
2023/11/08 08:47:45;;;;;;;7.43;3.50;;;10.40;99.80;;;;;;5012204;28;20456;-73
2023/11/08 08:50:13;;;;;;;7.10;2.67;;;10.50;99.90;;;;;;5012411;28;20456;-73
2023/11/08 08:52:40;;;;;;;9.50;2.57;;;10.60;99.90;;;;;;5011983;28;20445;-73
2023/11/08 08:55:08;;;;;;;8.73;2.20;;;10.60;98.40;;;;;;5011604;28;20457;-73
2023/11/08 08:57:35;;;;;;;6.00;2.20;;;10.70;97.90;;;;;;5012226;28;20485;-73
2023/11/08 09:00:07;;;;;;;12.73;2.70;;;10.70;97.90;;;;;;5012337;28;20610;-73
2023/11/08 09:02:34;;;;;;;7.43;2.63;;;10.80;97.90;;;;;;5012320;28;20453;-73
2023/11/08 09:05:01;;;;;;;7.70;2.35;;;10.90;98.00;;;;;;5011748;28;20461;-73
2023/11/08 09:07:30;;;;;;;8.73;2.40;;;10.90;98.00;;;;;;5011827;28;20196;-73
2023/11/08 09:09:57;;;;;;;5.90;1.90;;;11.00;98.00;;;;;;5011599;28;20457;-73
2023/11/08 09:12:24;;;;;;;12.83;2.47;;;11.10;98.10;;;;;;5012216;28;20460;-73
2023/11/08 09:14:52;;;;;;;8.27;1.90;;;11.00;96.10;;;;;;5010855;28;20479;-73
2023/11/08 09:17:21;;;;;;;9.73;1.97;;;10.90;96.30;;;;;;5010522;28;20480;-70
2023/11/08 09:19:48;;;;;;;11.30;1.90;;;10.80;95.40;;;;;;5010293;28;20454;-70
2023/11/08 09:22:15;;;;;;;9.37;3.43;;;10.70;94.60;;;;;;5010861;28;20456;-70
2023/11/08 09:24:42;;;;;;;8.30;2.20;;;11.00;95.70;;;;;;5010768;28;20507;-70
2023/11/08 09:27:09;;;;;;;7.60;2.50;;;11.20;95.00;;;;;;5012445;28;20822;-73
2023/11/08 09:29:36;;;;;;;16.47;2.80;;;11.50;94.40;;;;;;5011505;28;20550;-73
2023/11/08 09:32:04;;;;;;;11.10;2.87;;;11.70;90.30;;;;;;5012058;28;20453;-73
2023/11/08 09:34:32;;;;;;;10.82;2.35;;;11.90;86.40;;;;;;5010767;28;20906;-73
2023/11/08 09:37:00;;;;;;;8.53;2.30;;;12.10;86.60;;;;;;5011932;28;20225;-73
2023/11/08 09:39:28;;;;;;;12.70;2.47;;;12.30;85.50;;;;;;5008669;28;21040;-70
2023/11/08 09:41:56;;;;;;;8.20;1.90;;;12.50;79.20;;;;;;5011644;28;20527;-70
2023/11/08 09:44:25;;;;;;;8.73;2.03;;;12.60;79.30;;;;;;5011495;28;20456;-70
2023/11/08 09:46:54;;;;;;;14.30;2.30;;;12.50;73.80;;;;;;5010346;28;20457;-70
2023/11/08 09:49:23;;;;;;;8.77;2.43;;;12.70;74.90;;;;;;5011030;28;20510;-70
2023/11/08 09:51:52;;;;;;;7.17;1.77;;;12.80;71.70;;;;;;5012057;28;20531;-70
2023/11/08 09:54:19;;;;;;;11.40;1.60;;;13.00;71.80;;;;;;5011839;28;20456;-71
2023/11/08 09:56:46;;;;;;;11.53;2.43;;;13.40;72.10;;;;;;5011435;28;20483;-70
2023/11/08 09:59:15;;;;;;;9.53;2.17;;;13.40;64.80;;;;;;5010545;28;20459;-71
2023/11/08 10:01:45;;;;;;;5.67;1.83;;;13.60;64.30;;;;;;5011403;28;20461;-70
2023/11/08 10:04:15;;;;;;;8.60;1.83;;;13.50;64.20;;;;;;5011362;28;20876;-70
2023/11/08 10:06:41;;;;;;;11.03;2.10;;;13.50;64.20;;;;;;5012805;28;20510;-70
2023/11/08 10:09:11;;;;;;;10.80;2.70;;;13.40;64.10;;;;;;5014352;28;20459;-70
2023/11/08 10:11:39;;;;;;;5.67;1.77;;;13.20;63.90;;;;;;5013617;28;20456;-70
2023/11/08 10:14:07;;;;;;;7.27;2.50;;;13.20;63.90;;;;;;5013949;28;20921;-71
2023/11/08 10:16:46;;;;;;;6.57;1.60;;;13.20;63.90;;;;;;5015590;28;20460;-70
2023/11/08 10:19:14;;;;;;;7.87;2.73;;;13.40;64.10;;;;;;5015283;28;20453;-70
2023/11/08 10:21:47;;;;;;;6.40;1.70;;;13.70;64.40;;;;;;5015635;28;20811;-71
2023/11/08 10:24:16;;;;;;;8.23;1.93;;;14.00;64.70;;;;;;5015099;28;20448;-70
2023/11/08 10:26:43;;;;;;;7.47;2.07;;;14.00;64.60;;;;;;5015269;28;20461;-70
2023/11/08 10:29:12;;;;;;;10.60;2.03;;;14.20;64.80;;;;;;5015403;28;20460;-71
2023/11/08 10:31:40;;;;;;;8.00;1.90;;;14.20;64.90;;;;;;5014525;28;20445;-70
2023/11/08 10:34:08;;;;;;;12.27;1.77;;;13.80;64.40;;;;;;5014862;28;20448;-70
2023/11/08 10:36:36;;;;;;;10.50;1.90;;;13.70;64.40;;;;;;5014726;28;20937;-70
2023/11/08 10:39:06;;;;;;;11.60;1.70;;;13.30;64.00;;;;;;5014530;28;20472;-70
2023/11/08 10:41:36;;;;;;;6.40;1.60;;;13.30;64.00;;;;;;5015238;28;20449;-71
2023/11/08 10:44:11;;;;;;;5.97;1.97;;;13.40;64.10;;;;;;5014983;28;20453;-70
2023/11/08 10:46:40;;;;;;;7.20;1.77;;;13.20;64.70;;;;;;5015022;28;20452;-70
2023/11/08 10:49:08;;;;;;;8.03;2.07;;;13.20;63.90;;;;;;5014536;28;20519;-70
2023/11/08 10:51:38;;;;;;;9.23;2.67;;;13.10;63.80;;;;;;5014788;28;20548;-71
2023/11/08 10:54:06;;;;;;;6.87;1.63;;;13.10;63.80;;;;;;5014076;28;20572;-70
2023/11/08 10:56:36;;;;;;;7.07;2.07;;;13.10;63.80;;;;;;5013980;28;20449;-71
2023/11/08 10:59:04;;;;;;;8.63;1.87;;;13.30;64.00;;;;;;5014462;28;20572;-70
2023/11/08 11:01:32;;;;;;;10.53;1.63;;;13.30;64.00;;;;;;5014535;28;20452;-71
2023/11/08 11:04:05;;;;;;;7.67;1.70;;;13.20;63.90;;;;;;5014534;28;20449;-70
2023/11/08 11:06:35;;;;;;;8.60;2.10;;;12.70;63.40;;;;;;5014322;28;20901;-70
2023/11/08 11:09:08;;;;;;;5.43;1.73;;;12.80;63.50;;;;;;5014222;28;20869;-70
2023/11/08 11:11:38;;;;;;;7.33;2.00;;;12.70;64.10;;;;;;5014532;28;20449;-70
2023/11/08 11:14:16;;;;;;;6.27;1.80;;;12.60;63.30;;;;;;5014423;28;20817;-70
2023/11/08 11:16:50;;;;;;;7.47;1.90;;;12.80;63.50;;;;;;5014696;28;20449;-70
2023/11/08 11:19:18;;;;;;;8.00;1.93;;;12.90;63.70;;;;;;5013404;28;20441;-70
2023/11/08 11:21:48;;;;;;;7.73;1.57;;;13.00;63.70;;;;;;5014280;28;20449;-70
2023/11/08 11:24:39;;;;;;;4.80;1.40;;;13.00;63.70;;;;;;5014370;28;20460;-70
2023/11/08 11:27:09;;;;;;;7.37;1.50;;;12.80;63.60;;;;;;5014110;28;20440;-70
2023/11/08 11:29:35;;;;;;;7.57;1.47;;;12.70;63.40;;;;;;5014220;28;20897;-70
2023/11/08 11:32:04;;;;;;;8.20;1.70;;;13.00;60.60;;;;;;5013742;28;20449;-71
2023/11/08 11:34:46;;;;;;;6.07;1.77;;;13.70;59.50;;;;;;5013931;28;20449;-70
2023/11/08 11:37:16;;;;;;;8.93;1.80;;;14.00;56.30;;;;;;5013703;28;20476;-70
2023/11/08 11:39:48;;;;;;;7.73;1.73;;;13.90;56.10;;;;;;5013930;28;20459;-70
2023/11/08 11:42:19;;;;;;;6.47;1.53;;;13.80;56.10;;;;;;5013905;28;20456;-70
2023/11/08 11:44:49;;;;;;;7.70;1.73;;;13.60;55.90;;;;;;5013917;28;20881;-70
2023/11/08 11:47:18;;;;;;;6.67;2.70;;;13.60;55.90;;;;;;5013744;28;20449;-70
2023/11/08 11:49:46;;;;;;;6.10;1.73;;;13.70;56.00;;;;;;5013634;28;20457;-71
2023/11/08 11:52:15;;;;;;;7.83;1.60;;;14.00;56.30;;;;;;5013997;28;20819;-70
2023/11/08 11:54:46;;;;;;;11.83;2.20;;;14.00;56.30;;;;;;5013807;28;20483;-70
2023/11/08 11:57:13;;;;;;;5.17;1.83;;;14.20;56.50;;;;;;5013360;28;20449;-71
2023/11/08 11:59:42;;;;;;;7.83;2.00;;;14.70;48.30;;;;;;5013573;28;20453;-70
2023/11/08 12:02:10;;;;;;;8.50;2.00;;;14.80;49.20;;;;;;5013263;28;20456;-70
2023/11/08 12:04:36;;;;;;;9.30;1.70;;;14.70;48.30;;;;;;5012371;28;20488;-71
2023/11/08 12:07:05;;;;;;;8.43;1.93;;;14.80;48.40;;;;;;5012467;28;20991;-71
2023/11/08 12:09:34;;;;;;;8.03;1.43;;;15.00;48.60;;;;;;5012445;28;20959;-70
2023/11/08 12:12:01;;;;;;;6.50;1.53;;;15.10;48.70;;;;;;5013004;28;20449;-71
2023/11/08 12:14:28;;;;;;;8.90;1.77;;;15.00;45.00;;;;;;5013513;28;20455;-71
2023/11/08 12:16:57;;;;;;;5.57;1.43;;;14.80;48.10;;;;;;5013053;28;20456;-71
2023/11/08 12:19:23;;;;;;;8.23;1.43;;;15.10;48.60;;;;;;5013164;28;20484;-70
2023/11/08 12:21:50;;;;;;;7.13;1.73;;;15.00;40.70;;;;;;5013341;28;20471;-71
2023/11/08 12:24:18;;;;;;;5.50;1.33;;;15.50;40.20;;;;;;5013303;28;20924;-71
2023/11/08 12:26:43;;;;;;;5.90;1.43;;;15.70;40.30;;;;;;5013406;28;20472;-70
2023/11/08 12:29:12;;;;;;;6.87;1.70;;;15.50;41.00;;;;;;5012818;28;20449;-70
2023/11/08 12:31:38;;;;;;;10.87;1.77;;;15.00;41.40;;;;;;5012762;28;20213;-71
2023/11/08 12:34:08;;;;;;;9.17;1.50;;;14.50;44.60;;;;;;5013171;28;20453;-70
2023/11/08 12:36:38;;;;;;;7.00;1.60;;;14.10;47.70;;;;;;5012936;28;20937;-70
2023/11/08 12:39:10;;;;;;;6.30;2.10;;;14.00;47.60;;;;;;5012804;28;20487;-70
2023/11/08 12:41:45;;;;;;;6.20;2.50;;;14.00;47.60;;;;;;5013030;28;20793;-70
2023/11/08 12:44:12;;;;;;;4.40;1.40;;;13.90;47.60;;;;;;5012627;28;20988;-70